createdAt,value
2019-05-20T00:00:24.905Z,69.59
2019-05-20T00:02:54.850Z,69.73
2019-05-20T00:05:24.501Z,69.82
2019-05-20T00:07:54.274Z,69.93
2019-05-20T00:10:23.722Z,69.99
2019-05-20T00:12:53.555Z,70.17
2019-05-20T00:15:23.036Z,70.33
2019-05-20T00:17:52.545Z,70.43
2019-05-20T00:20:22.479Z,70.51
2019-05-20T00:22:52.050Z,70.75
2019-05-20T00:25:21.620Z,70.71
2019-05-20T00:27:51.368Z,70.80
2019-05-20T00:30:21.482Z,70.88
2019-05-20T00:32:51.357Z,71.08
2019-05-20T00:35:21.379Z,71.10
2019-05-20T00:37:50.836Z,71.25
2019-05-20T00:40:20.412Z,71.37
2019-05-20T00:42:49.916Z,71.41
2019-05-20T00:45:19.500Z,71.52
2019-05-20T00:47:50.187Z,71.61
2019-05-20T00:50:19.701Z,71.79
2019-05-20T00:52:49.266Z,71.97
2019-05-20T00:55:24.648Z,72.15
2019-05-20T00:57:54.155Z,72.22
2019-05-20T01:00:24.258Z,72.24
2019-05-20T01:02:56.785Z,72.32
2019-05-20T01:05:26.068Z,72.43
2019-05-20T01:07:55.574Z,72.59
2019-05-20T01:10:25.099Z,72.70
2019-05-20T01:12:55.030Z,72.77
2019-05-20T01:15:24.622Z,72.88
2019-05-20T01:17:54.141Z,73.00
2019-05-20T01:20:23.607Z,73.07
2019-05-20T01:22:53.176Z,73.19
2019-05-20T01:25:22.651Z,73.42
2019-05-20T01:27:52.226Z,73.48
2019-05-20T01:30:22.117Z,73.48
2019-05-20T01:32:51.641Z,73.59
2019-05-20T01:35:21.152Z,73.72
2019-05-20T01:37:50.613Z,73.81
2019-05-20T01:40:20.626Z,73.95
2019-05-20T01:42:50.084Z,74.09
2019-05-20T01:45:19.682Z,74.22
2019-05-20T01:47:49.202Z,74.74
2019-05-20T01:50:18.789Z,74.84
2019-05-20T01:52:48.245Z,74.75
2019-05-20T01:55:17.856Z,74.82
2019-05-20T01:57:47.369Z,74.95
2019-05-20T02:00:17.221Z,75.17
2019-05-20T02:02:46.746Z,75.28
2019-05-20T02:05:16.313Z,75.47
2019-05-20T02:07:45.772Z,75.60
2019-05-20T02:10:15.678Z,75.80
2019-05-20T02:12:45.191Z,75.93
2019-05-20T02:15:28.986Z,75.95
2019-05-20T02:17:58.937Z,76.05
2019-05-20T02:20:28.404Z,76.07
2019-05-20T02:23:16.837Z,76.14
2019-05-20T02:25:48.700Z,76.24
2019-05-20T02:28:18.351Z,76.35
2019-05-20T02:30:47.832Z,76.50
2019-05-20T02:33:17.338Z,76.75
2019-05-20T02:35:46.793Z,76.94
2019-05-20T02:38:16.299Z,77.11
2019-05-20T02:40:45.823Z,77.31
2019-05-20T02:43:15.554Z,77.52
2019-05-20T02:45:45.080Z,77.62
2019-05-20T02:48:14.721Z,77.83
2019-05-20T02:50:44.494Z,78.44
2019-05-20T02:53:14.004Z,78.58
2019-05-20T02:55:43.957Z,78.69
2019-05-20T02:58:13.831Z,79.39
2019-05-20T03:00:43.420Z,79.52
2019-05-20T03:03:12.922Z,79.75
2019-05-20T03:05:42.806Z,80.30
2019-05-20T03:08:12.393Z,80.57
2019-05-20T03:10:42.584Z,80.61
2019-05-20T03:13:13.153Z,81.02
2019-05-20T03:15:42.678Z,80.83
2019-05-20T03:18:12.200Z,81.08
2019-05-20T03:20:41.724Z,80.95
2019-05-20T03:23:11.397Z,81.66
2019-05-20T03:25:41.044Z,81.42
2019-05-20T03:28:10.878Z,81.68
2019-05-20T03:30:40.805Z,82.55
2019-05-20T03:33:10.622Z,82.31
2019-05-20T03:35:40.162Z,82.35
2019-05-20T03:38:09.609Z,82.59
2019-05-20T03:40:39.171Z,82.63
2019-05-20T03:43:09.002Z,82.60
2019-05-20T03:45:38.611Z,82.64
2019-05-20T03:48:08.055Z,82.73
2019-05-20T03:50:37.563Z,82.79
2019-05-20T03:53:07.080Z,83.01
2019-05-20T03:55:36.622Z,83.31
2019-05-20T03:58:06.076Z,83.44
2019-05-20T04:00:48.414Z,83.65
2019-05-20T04:03:18.107Z,83.79
2019-05-20T04:05:47.630Z,83.89
2019-05-20T04:08:17.157Z,83.91
2019-05-20T04:10:46.751Z,83.88
2019-05-20T04:13:16.419Z,83.69
2019-05-20T04:15:45.890Z,83.98
2019-05-20T04:18:16.816Z,83.88
2019-05-20T04:20:46.329Z,83.81
2019-05-20T04:23:15.850Z,84.06
2019-05-20T04:25:45.385Z,83.92
2019-05-20T04:28:14.977Z,83.87
2019-05-20T04:30:44.560Z,84.00
2019-05-20T04:33:14.113Z,83.85
2019-05-20T04:35:43.574Z,83.76
2019-05-20T04:38:13.421Z,83.63
2019-05-20T04:40:43.253Z,83.54
2019-05-20T04:43:13.256Z,83.40
2019-05-20T04:45:43.052Z,83.44
2019-05-20T04:48:13.909Z,83.42
2019-05-20T04:50:43.671Z,83.28
2019-05-20T04:53:13.145Z,83.16
2019-05-20T04:55:42.980Z,83.13
2019-05-20T04:58:12.899Z,83.01
2019-05-20T05:00:56.517Z,82.90
2019-05-20T05:03:26.041Z,82.77
2019-05-20T05:05:55.992Z,82.71
2019-05-20T05:08:25.784Z,82.53
2019-05-20T05:10:55.496Z,82.29
2019-05-20T05:13:25.426Z,82.05
2019-05-20T05:15:55.103Z,81.75
2019-05-20T05:18:24.623Z,81.70
2019-05-20T05:20:54.204Z,81.52
2019-05-20T05:23:24.428Z,81.53
2019-05-20T05:25:54.105Z,81.47
2019-05-20T05:28:23.722Z,81.65
2019-05-20T05:30:53.552Z,81.64
2019-05-20T05:33:23.008Z,81.64
2019-05-20T05:35:53.756Z,81.63
2019-05-20T05:38:23.835Z,81.61
2019-05-20T05:40:53.353Z,81.79
2019-05-20T05:43:22.861Z,81.79
2019-05-20T05:45:52.428Z,81.76
2019-05-20T05:48:22.154Z,81.62
2019-05-20T05:50:51.975Z,81.65
2019-05-20T05:53:21.497Z,81.55
2019-05-20T05:55:50.959Z,81.44
2019-05-20T05:58:20.495Z,81.49
2019-05-20T06:00:49.940Z,81.24
2019-05-20T06:03:20.220Z,81.19
2019-05-20T06:05:49.661Z,81.10
2019-05-20T06:08:19.281Z,81.17
2019-05-20T06:10:48.845Z,81.09
2019-05-20T06:13:18.408Z,80.96
2019-05-20T06:15:48.265Z,80.71
2019-05-20T06:18:17.822Z,80.34
2019-05-20T06:20:47.343Z,79.98
2019-05-20T06:23:17.872Z,79.69
2019-05-20T06:25:47.423Z,79.23
2019-05-20T06:28:16.980Z,79.06
2019-05-20T06:30:48.196Z,78.76
2019-05-20T06:33:18.791Z,78.62
2019-05-20T06:35:48.392Z,78.60
2019-05-20T06:38:19.853Z,78.44
2019-05-20T06:40:50.339Z,78.02
2019-05-20T06:43:19.900Z,77.83
2019-05-20T06:45:49.373Z,77.53
2019-05-20T06:48:18.900Z,77.06
2019-05-20T06:50:48.329Z,76.69
2019-05-20T06:53:17.783Z,76.70
2019-05-20T06:55:47.291Z,76.65
2019-05-20T06:58:17.213Z,76.36
2019-05-20T07:00:46.772Z,76.42
2019-05-20T07:03:16.235Z,76.12
2019-05-20T07:05:45.888Z,76.00
2019-05-20T07:08:15.407Z,76.19
2019-05-20T07:10:45.382Z,76.07
2019-05-20T07:13:16.355Z,75.98
2019-05-20T07:15:46.149Z,75.38
2019-05-20T07:18:15.662Z,75.39
2019-05-20T07:20:45.472Z,75.37
2019-05-20T07:23:14.995Z,74.78
2019-05-20T07:25:44.615Z,74.75
2019-05-20T07:28:14.171Z,74.16
2019-05-20T07:30:43.655Z,73.87
2019-05-20T07:33:13.424Z,73.85
2019-05-20T07:35:43.007Z,73.29
2019-05-20T07:38:12.563Z,72.75
2019-05-20T07:40:42.122Z,72.52
2019-05-20T07:43:11.982Z,72.09
2019-05-20T07:45:42.743Z,71.93
2019-05-20T07:48:12.850Z,71.64
2019-05-20T07:50:43.752Z,72.16
2019-05-20T07:53:13.843Z,72.54
2019-05-20T07:56:00.276Z,71.83
2019-05-20T07:58:33.662Z,71.45
2019-05-20T08:01:04.146Z,70.34
2019-05-20T08:03:38.438Z,70.31
2019-05-20T08:06:05.912Z,69.98
2019-05-20T08:08:35.439Z,69.71
2019-05-20T08:11:05.323Z,69.09
2019-05-20T08:13:34.896Z,68.54
2019-05-20T08:16:04.499Z,68.22
2019-05-20T08:18:35.369Z,68.60
2019-05-20T08:21:05.369Z,68.65
2019-05-20T08:23:34.926Z,68.51
2019-05-20T08:26:04.519Z,68.10
2019-05-20T08:28:34.605Z,68.08
2019-05-20T08:31:04.148Z,67.95
2019-05-20T08:33:34.208Z,67.44
2019-05-20T08:36:03.901Z,67.07
2019-05-20T08:38:33.855Z,66.41
2019-05-20T08:41:03.310Z,66.43
2019-05-20T08:43:32.914Z,66.37
2019-05-20T08:46:02.379Z,65.97
2019-05-20T08:48:32.027Z,65.76
2019-05-20T08:51:01.882Z,66.21
2019-05-20T08:53:31.388Z,65.72
2019-05-20T08:56:00.935Z,66.04
2019-05-20T08:58:30.394Z,66.13
2019-05-20T09:00:59.886Z,66.08
2019-05-20T09:03:30.544Z,66.26
2019-05-20T09:06:01.646Z,65.63
2019-05-20T09:08:31.437Z,65.46
2019-05-20T09:11:01.016Z,65.08
2019-05-20T09:13:30.553Z,64.61
2019-05-20T09:16:00.464Z,64.70
2019-05-20T09:18:30.434Z,64.12
2019-05-20T09:21:00.049Z,63.09
2019-05-20T09:23:29.523Z,62.76
2019-05-20T09:25:59.650Z,62.69
2019-05-20T09:28:29.254Z,62.69
2019-05-20T09:30:58.753Z,61.46
2019-05-20T09:33:28.447Z,62.15
2019-05-20T09:35:58.240Z,62.23
2019-05-20T09:38:27.785Z,62.63
2019-05-20T09:40:57.726Z,62.83
2019-05-20T09:43:27.614Z,62.65
2019-05-20T09:46:07.679Z,62.14
2019-05-20T09:48:28.328Z,62.22
2019-05-20T09:50:57.874Z,62.69
2019-05-20T09:55:55.827Z,62.75
2019-05-20T09:58:25.405Z,62.14
2019-05-20T10:00:54.890Z,62.33
2019-05-20T10:03:24.386Z,62.70
2019-05-20T10:05:53.867Z,62.36
2019-05-20T10:08:37.502Z,62.19
2019-05-20T10:10:59.412Z,62.01
2019-05-20T10:13:26.125Z,61.84
2019-05-20T10:15:55.589Z,62.51
2019-05-20T10:18:36.884Z,62.32
2019-05-20T10:20:56.292Z,62.17
2019-05-20T10:23:25.898Z,62.05
2019-05-20T10:25:55.364Z,61.54
2019-05-20T10:28:25.377Z,61.45
2019-05-20T10:30:54.915Z,61.23
2019-05-20T10:33:24.474Z,60.40
2019-05-20T10:35:53.955Z,60.04
2019-05-20T10:38:23.952Z,59.60
2019-05-20T10:40:54.306Z,59.99
2019-05-20T10:43:23.922Z,59.79
2019-05-20T10:45:53.752Z,59.96
2019-05-20T10:48:23.346Z,59.89
2019-05-20T10:50:52.863Z,59.39
2019-05-20T10:53:22.475Z,59.33
2019-05-20T10:55:52.411Z,59.19
2019-05-20T10:58:21.931Z,58.91
2019-05-20T11:01:02.336Z,58.91
2019-05-20T11:03:22.709Z,58.47
2019-05-20T11:05:52.233Z,59.17
2019-05-20T11:08:21.758Z,59.37
2019-05-20T11:10:51.378Z,59.90
2019-05-20T11:13:20.899Z,58.97
2019-05-20T11:15:50.394Z,58.33
2019-05-20T11:18:19.881Z,56.76
2019-05-20T11:20:49.385Z,55.55
2019-05-20T11:23:18.913Z,55.17
2019-05-20T11:25:48.426Z,54.95
2019-05-20T11:28:17.882Z,55.86
2019-05-20T11:30:47.400Z,56.24
2019-05-20T11:33:16.928Z,54.96
2019-05-20T11:35:46.745Z,54.37
2019-05-20T11:38:16.256Z,53.83
2019-05-20T11:40:46.835Z,52.64
2019-05-20T11:43:16.800Z,52.06
2019-05-20T11:45:46.322Z,51.72
2019-05-20T11:48:15.900Z,51.31
2019-05-20T11:50:45.337Z,51.00
2019-05-20T11:53:14.965Z,50.93
2019-05-20T11:55:45.425Z,50.07
2019-05-20T11:58:16.354Z,50.33
2019-05-20T12:00:46.321Z,50.02
2019-05-20T12:03:15.797Z,49.79
2019-05-20T12:05:45.408Z,49.38
2019-05-20T12:08:14.936Z,49.51
2019-05-20T12:10:44.974Z,49.24
2019-05-20T12:13:14.417Z,48.94
2019-05-20T12:15:44.120Z,49.03
2019-05-20T12:18:13.648Z,48.05
2019-05-20T12:20:43.209Z,46.30
2019-05-20T12:23:12.659Z,46.41
2019-05-20T12:25:42.201Z,47.38
2019-05-20T12:28:11.827Z,47.57
2019-05-20T12:30:41.732Z,46.88
2019-05-20T12:33:19.711Z,46.55
2019-05-20T12:35:42.361Z,47.15
2019-05-20T12:38:12.184Z,47.27
2019-05-20T12:40:41.974Z,47.19
2019-05-20T12:43:11.538Z,47.57
2019-05-20T12:45:41.191Z,46.83
2019-05-20T12:48:10.715Z,47.48
2019-05-20T12:50:40.163Z,47.68
2019-05-20T12:53:10.057Z,47.31
2019-05-20T12:55:39.575Z,47.47
2019-05-20T12:58:09.246Z,46.99
2019-05-20T13:00:39.094Z,47.50
2019-05-20T13:03:08.611Z,47.45
2019-05-20T13:05:39.129Z,48.29
2019-05-20T13:08:08.917Z,48.71
2019-05-20T13:10:38.386Z,49.36
2019-05-20T13:13:08.284Z,50.10
2019-05-20T13:15:37.733Z,50.72
2019-05-20T13:18:08.712Z,51.21
2019-05-20T13:20:38.316Z,51.28
2019-05-20T13:23:11.118Z,51.36
2019-05-20T13:25:40.191Z,50.78
2019-05-20T13:28:09.806Z,50.43
2019-05-20T13:30:39.363Z,50.15
2019-05-20T13:33:09.088Z,50.00
2019-05-20T13:35:39.600Z,50.14
2019-05-20T13:38:09.113Z,50.25
2019-05-20T13:40:46.223Z,51.24
2019-05-20T13:43:10.386Z,51.89
2019-05-20T13:45:41.026Z,52.14
2019-05-20T13:48:11.525Z,52.51
2019-05-20T13:50:40.999Z,52.74
2019-05-20T13:53:10.559Z,53.16
2019-05-20T13:55:40.058Z,53.24
2019-05-20T13:58:09.922Z,52.98
2019-05-20T14:00:39.392Z,53.46
2019-05-20T14:03:08.990Z,54.02
2019-05-20T14:05:38.504Z,54.92
2019-05-20T14:08:08.087Z,57.41
2019-05-20T14:10:38.073Z,59.45
2019-05-20T14:13:07.527Z,60.71
2019-05-20T14:15:37.211Z,60.78
2019-05-20T14:18:06.777Z,60.83
2019-05-20T14:20:36.381Z,61.48
2019-05-20T14:23:06.280Z,61.48
2019-05-20T14:25:35.759Z,61.29
2019-05-20T14:28:05.355Z,61.43
2019-05-20T14:30:35.933Z,60.88
2019-05-20T14:33:05.884Z,60.07
2019-05-20T14:35:35.696Z,58.26
2019-05-20T14:38:05.197Z,57.25
2019-05-20T14:40:34.819Z,57.01
2019-05-20T14:43:04.403Z,55.98
2019-05-20T14:45:33.884Z,56.24
2019-05-20T14:48:03.641Z,55.26
2019-05-20T14:50:33.213Z,54.72
2019-05-20T14:53:02.818Z,54.14
2019-05-20T14:55:41.867Z,54.11
2019-05-20T14:58:03.504Z,54.95
2019-05-20T15:00:33.968Z,55.33
2019-05-20T15:03:03.786Z,55.69
2019-05-20T15:05:33.408Z,55.18
2019-05-20T15:08:02.948Z,54.96
2019-05-20T15:10:32.719Z,55.56
2019-05-20T15:13:02.229Z,55.96
2019-05-20T15:15:33.354Z,56.27
2019-05-20T15:18:02.805Z,56.49
2019-05-20T15:20:32.380Z,56.77
2019-05-20T15:23:01.820Z,57.05
2019-05-20T15:25:32.628Z,57.04
2019-05-20T15:28:03.279Z,56.93
2019-05-20T15:30:32.803Z,56.55
2019-05-20T15:33:02.575Z,56.81
2019-05-20T15:35:32.468Z,56.91
2019-05-20T15:38:01.963Z,56.98
2019-05-20T15:40:31.419Z,56.53
2019-05-20T15:43:01.125Z,56.60
2019-05-20T15:45:30.610Z,56.78
2019-05-20T15:48:00.594Z,57.17
2019-05-20T15:50:30.399Z,58.05
2019-05-20T15:52:59.926Z,58.03
2019-05-20T15:55:29.409Z,58.46
2019-05-20T15:57:58.964Z,58.52
2019-05-20T16:00:28.534Z,58.22
2019-05-20T16:02:58.289Z,58.64
2019-05-20T16:05:27.865Z,59.11
2019-05-20T16:07:57.325Z,59.33
2019-05-20T16:10:26.812Z,59.46
2019-05-20T16:12:56.266Z,59.54
2019-05-20T16:15:25.945Z,61.55
2019-05-20T16:17:55.721Z,63.07
2019-05-20T16:20:25.313Z,65.08
2019-05-20T16:22:54.775Z,66.98
2019-05-20T16:25:24.554Z,68.89
2019-05-20T16:27:54.592Z,70.48
2019-05-20T16:30:25.893Z,71.84
2019-05-20T16:32:55.348Z,72.95
2019-05-20T16:35:24.851Z,74.13
2019-05-20T16:37:54.578Z,75.21
2019-05-20T16:40:24.643Z,75.84
2019-05-20T16:42:54.160Z,76.47
2019-05-20T16:45:24.269Z,76.61
2019-05-20T16:47:54.147Z,78.07
2019-05-20T16:50:24.056Z,79.70
2019-05-20T16:52:53.620Z,81.27
2019-05-20T16:55:23.157Z,80.88
2019-05-20T16:57:52.778Z,81.81
2019-05-20T17:00:31.391Z,82.55
2019-05-20T17:02:53.624Z,83.14
2019-05-20T17:05:23.611Z,83.53
2019-05-20T17:07:53.431Z,84.67
2019-05-20T17:10:23.003Z,85.03
2019-05-20T17:12:52.842Z,85.22
2019-05-20T17:15:22.445Z,85.60
2019-05-20T17:17:52.359Z,86.01
2019-05-20T17:20:22.066Z,86.33
2019-05-20T17:22:51.736Z,86.16
2019-05-20T17:25:21.478Z,86.41
2019-05-20T17:27:51.126Z,86.57
2019-05-20T17:30:20.678Z,86.83
2019-05-20T17:32:51.141Z,86.99
2019-05-20T17:35:21.337Z,87.09
2019-05-20T17:37:54.710Z,86.96
2019-05-20T17:40:29.692Z,87.04
2019-05-20T17:42:59.695Z,86.93
2019-05-20T17:45:29.651Z,86.90
2019-05-20T17:47:59.311Z,87.33
2019-05-20T17:50:29.263Z,87.28
2019-05-20T17:52:58.871Z,87.27
2019-05-20T17:55:29.577Z,87.42
2019-05-20T17:58:00.348Z,87.70
2019-05-20T18:00:29.910Z,87.77
2019-05-20T18:02:59.486Z,87.97
2019-05-20T18:05:28.958Z,87.96
2019-05-20T18:07:58.872Z,88.47
2019-05-20T18:10:28.408Z,88.42
2019-05-20T18:12:57.915Z,88.57
2019-05-20T18:15:27.571Z,88.47
2019-05-20T18:17:57.134Z,87.81
2019-05-20T18:20:26.675Z,86.04
2019-05-20T18:22:56.255Z,85.34
2019-05-20T18:25:25.710Z,84.17
2019-05-20T18:27:55.215Z,84.94
2019-05-20T18:30:26.089Z,85.62
2019-05-20T18:32:55.998Z,86.00
2019-05-20T18:35:25.517Z,86.18
2019-05-20T18:37:55.011Z,86.27
2019-05-20T18:40:24.543Z,86.61
2019-05-20T18:42:54.043Z,87.14
2019-05-20T18:45:23.934Z,87.44
2019-05-20T18:47:53.442Z,87.83
2019-05-20T18:50:22.999Z,87.98
2019-05-20T18:52:52.526Z,88.24
2019-05-20T18:55:22.028Z,88.26
2019-05-20T18:57:51.785Z,88.53
2019-05-20T19:00:22.424Z,88.57
2019-05-20T19:02:53.772Z,88.78
2019-05-20T19:05:23.889Z,89.06
2019-05-20T19:07:53.738Z,89.23
2019-05-20T19:10:24.470Z,89.68
2019-05-20T19:12:56.587Z,89.85
2019-05-20T19:15:26.643Z,89.94
2019-05-20T19:17:56.956Z,89.98
2019-05-20T19:20:27.680Z,90.39
2019-05-20T19:22:58.843Z,90.57
2019-05-20T19:25:37.338Z,90.97
2019-05-20T19:27:59.907Z,91.79
2019-05-20T19:30:29.475Z,92.42
2019-05-20T19:32:59.141Z,93.01
2019-05-20T19:35:28.720Z,93.38
2019-05-20T19:37:58.592Z,93.83
2019-05-20T19:40:28.273Z,93.99
2019-05-20T19:42:57.949Z,94.21
2019-05-20T19:45:27.570Z,94.42
2019-05-20T19:47:57.227Z,94.58
2019-05-20T19:50:27.139Z,94.69
2019-05-20T19:52:56.720Z,94.86
2019-05-20T19:55:26.239Z,94.67
2019-05-20T19:57:55.819Z,94.78
2019-05-20T20:00:25.547Z,94.64
2019-05-20T20:02:55.081Z,94.94
2019-05-20T20:05:27.505Z,95.06
2019-05-20T20:07:57.970Z,95.10
2019-05-20T20:10:28.347Z,95.05
2019-05-20T20:12:58.457Z,95.37
2019-05-20T20:15:28.662Z,95.41
2019-05-20T20:17:59.047Z,95.36
2019-05-20T20:20:28.814Z,95.46
2019-05-20T20:22:58.692Z,95.38
2019-05-20T20:25:28.991Z,95.20
2019-05-20T20:27:59.196Z,94.90
2019-05-20T20:30:28.787Z,94.82
2019-05-20T20:32:58.565Z,94.80
2019-05-20T20:35:37.568Z,94.65
2019-05-20T20:37:59.956Z,94.79
2019-05-20T20:40:30.388Z,94.84
2019-05-20T20:43:00.215Z,94.85
2019-05-20T20:45:30.597Z,94.73
2019-05-20T20:48:00.527Z,94.95
2019-05-20T20:50:31.126Z,95.12
2019-05-20T20:53:00.624Z,95.06
2019-05-20T20:55:30.092Z,95.09
2019-05-20T20:57:59.716Z,95.31
2019-05-20T21:00:30.564Z,95.11
2019-05-20T21:03:00.357Z,95.04
2019-05-20T21:05:30.334Z,94.93
2019-05-20T21:07:59.821Z,95.07
2019-05-20T21:10:29.289Z,95.04
2019-05-20T21:12:59.153Z,94.96
2019-05-20T21:15:28.601Z,94.80
2019-05-20T21:17:58.096Z,95.14
2019-05-20T21:20:27.553Z,95.04
2019-05-20T21:22:57.083Z,95.04
2019-05-20T21:25:26.619Z,95.07
2019-05-20T21:27:56.261Z,95.15
2019-05-20T21:30:26.078Z,94.96
2019-05-20T21:33:08.152Z,95.14
2019-05-20T21:35:26.744Z,95.18
2019-05-20T21:37:56.191Z,95.03
2019-05-20T21:40:26.046Z,94.99
2019-05-20T21:42:55.508Z,95.15
2019-05-20T21:45:25.086Z,95.10
2019-05-20T21:47:54.533Z,95.10
2019-05-20T21:50:24.322Z,95.17
2019-05-20T21:52:53.820Z,95.13
2019-05-20T21:55:23.335Z,95.10
2019-05-20T21:57:52.874Z,94.92
2019-05-20T22:00:24.202Z,94.74
2019-05-20T22:02:55.277Z,94.58
2019-05-20T22:05:24.787Z,94.41
2019-05-20T22:07:54.278Z,94.25
2019-05-20T22:10:23.850Z,94.13
2019-05-20T22:12:53.722Z,94.02
2019-05-20T22:15:23.179Z,93.92
2019-05-20T22:17:52.684Z,93.87
2019-05-20T22:20:22.150Z,93.62
2019-05-20T22:22:55.974Z,93.60
2019-05-20T22:25:25.444Z,93.54
2019-05-20T22:27:54.944Z,93.59
2019-05-20T22:30:24.489Z,93.57
2019-05-20T22:32:53.984Z,93.61
2019-05-20T22:35:23.436Z,93.62
2019-05-20T22:37:53.011Z,94.12
2019-05-20T22:40:22.631Z,94.58
2019-05-20T22:42:52.127Z,94.82
2019-05-20T22:45:21.660Z,94.99
2019-05-20T22:47:51.444Z,95.39
2019-05-20T22:50:20.910Z,95.62
2019-05-20T22:52:51.998Z,95.71
2019-05-20T22:55:21.636Z,95.75
2019-05-20T22:57:51.089Z,95.82
2019-05-20T23:00:20.743Z,95.74
2019-05-20T23:02:50.618Z,95.74
2019-05-20T23:05:20.126Z,95.86
2019-05-20T23:07:49.593Z,95.82
2019-05-20T23:10:19.368Z,96.03
2019-05-20T23:12:48.823Z,95.92
2019-05-20T23:15:18.316Z,95.79
2019-05-20T23:17:47.855Z,95.64
2019-05-20T23:20:17.781Z,95.72
2019-05-20T23:22:47.291Z,95.65
2019-05-20T23:25:16.816Z,95.61
2019-05-20T23:27:46.322Z,95.57
2019-05-20T23:30:16.472Z,95.54
2019-05-20T23:32:46.028Z,95.55
2019-05-20T23:35:15.598Z,95.60
2019-05-20T23:37:45.166Z,95.63
2019-05-20T23:40:14.625Z,95.66
2019-05-20T23:42:44.276Z,95.76
2019-05-20T23:45:14.233Z,95.71
2019-05-20T23:47:43.794Z,95.58
2019-05-20T23:50:13.482Z,95.53
2019-05-20T23:52:43.111Z,95.48
2019-05-20T23:55:12.743Z,95.60
2019-05-20T23:57:42.260Z,95.70
